Time;durP1;ratioP1;P1;durP2;ratioP2;P2;SDS_P1;SDS_P2;PMS_P1;PMS_P2;Temp;Humidity;BMP_temperature;BMP_pressure;BME280_temperature;BME280_humidity;BME280_pressure;Samples;Min_cycle;Max_cycle;Signal;HPM_P1;HPM_P2
2021/01/30 00:00:39;;;;;;;;;;;5.50;99.90;;;;;;5051070;28;19952;-67
2021/01/30 00:03:08;;;;;;;;;;;5.50;99.90;;;;;;5052981;28;19913;-67
2021/01/30 00:05:34;;;;;;;;;;;5.50;99.90;;;;;;5051516;28;19940;-65
2021/01/30 00:08:00;;;;;;;;;;;5.50;99.90;;;;;;5053059;28;19913;-67
2021/01/30 00:10:25;;;;;;;;;;;5.40;99.90;;;;;;5052721;28;19927;-65
2021/01/30 00:12:51;;;;;;;;;;;5.40;99.90;;;;;;5053085;28;20427;-69
2021/01/30 00:15:18;;;;;;;;;;;5.50;99.90;;;;;;5051516;28;19959;-68
2021/01/30 00:17:44;;;;;;;;;;;5.50;99.90;;;;;;5052337;28;19916;-68
2021/01/30 00:20:11;;;;;;;;;;;5.50;99.90;;;;;;5052031;28;19971;-67
2021/01/30 00:22:36;;;;;;;;;;;5.50;99.90;;;;;;5052799;28;19963;-66
2021/01/30 00:25:02;;;;;;;;;;;5.50;99.90;;;;;;5051191;28;19920;-66
2021/01/30 00:27:28;;;;;;;;;;;5.60;99.90;;;;;;5051244;28;19920;-66
2021/01/30 00:29:54;;;;;;;;;;;5.60;99.90;;;;;;5049048;28;19917;-70
2021/01/30 00:32:20;;;;;;;;;;;5.60;99.90;;;;;;5051433;28;19913;-73
2021/01/30 00:34:46;;;;;;;;;;;5.70;99.90;;;;;;5050731;28;19947;-73
2021/01/30 00:37:22;;;;;;;;;;;5.70;99.90;;;;;;5051580;28;20424;-66
2021/01/30 00:39:48;;;;;;;;;;;5.70;99.90;;;;;;5051176;28;19920;-66
2021/01/30 00:42:15;;;;;;;;;;;5.70;99.90;;;;;;5051252;28;19924;-67
2021/01/30 00:44:41;;;;;;;;;;;5.80;99.90;;;;;;5050362;28;20215;-69
2021/01/30 00:47:06;;;;;;;;;;;5.80;99.90;;;;;;5050600;28;19923;-66
2021/01/30 00:49:32;;;;;;;;;;;5.80;99.90;;;;;;5051278;28;19987;-69
2021/01/30 00:51:58;;;;;;;;;;;5.80;99.90;;;;;;5049582;28;19939;-70
2021/01/30 00:54:23;;;;;;;;;;;5.80;99.90;;;;;;5051295;28;19979;-68
2021/01/30 00:56:50;;;;;;;;;;;5.80;99.90;;;;;;5050827;28;20024;-70
2021/01/30 00:59:15;;;;;;;;;;;5.80;99.90;;;;;;5051125;28;19917;-68
2021/01/30 01:01:41;;;;;;;;;;;5.80;99.90;;;;;;5050622;28;20007;-67
2021/01/30 01:04:06;;;;;;;;;;;5.80;99.90;;;;;;5049918;28;19920;-69
2021/01/30 01:06:35;;;;;;;;;;;5.80;99.90;;;;;;5047719;28;19962;-68
2021/01/30 01:09:02;;;;;;;;;;;5.70;99.90;;;;;;5048757;28;19913;-66
2021/01/30 01:11:28;;;;;;;;;;;5.60;99.90;;;;;;5049923;28;19956;-68
2021/01/30 01:13:53;;;;;;;;;;;5.60;99.90;;;;;;5050824;28;19986;-67
2021/01/30 01:16:19;;;;;;;;;;;5.60;99.90;;;;;;5050041;28;19920;-67
2021/01/30 01:18:45;;;;;;;;;;;5.50;99.90;;;;;;5049697;28;20516;-67
2021/01/30 01:21:11;;;;;;;;;;;5.40;99.90;;;;;;5050416;28;20310;-66
2021/01/30 01:23:36;;;;;;;;;;;5.30;99.90;;;;;;5051278;28;19932;-66
2021/01/30 01:26:02;;;;;;;;;;;5.40;99.90;;;;;;5051157;28;20315;-66
2021/01/30 01:28:28;;;;;;;;;;;5.40;99.90;;;;;;5051760;28;19994;-67
2021/01/30 01:30:53;;;;;;;;;;;5.40;99.90;;;;;;5052659;28;19944;-66
2021/01/30 01:33:19;;;;;;;;;;;5.40;99.90;;;;;;5051071;28;19921;-66
2021/01/30 01:35:44;;;;;;;;;;;5.40;99.90;;;;;;5052949;28;19913;-67
2021/01/30 01:38:10;;;;;;;;;;;5.40;99.90;;;;;;5050524;28;19925;-67
2021/01/30 01:40:37;;;;;;;;;;;5.50;99.90;;;;;;5049813;28;19960;-66
2021/01/30 01:43:05;;;;;;;;;;;5.50;99.90;;;;;;5052294;28;20333;-67
2021/01/30 01:45:30;;;;;;;;;;;5.50;99.90;;;;;;5050997;28;19924;-66
2021/01/30 01:47:56;;;;;;;;;;;5.50;99.90;;;;;;5051727;28;20400;-66
2021/01/30 01:50:25;;;;;;;;;;;5.50;99.90;;;;;;5051152;28;19935;-67
2021/01/30 01:52:51;;;;;;;;;;;5.50;99.90;;;;;;5053049;28;20001;-65
2021/01/30 01:55:19;;;;;;;;;;;5.60;99.90;;;;;;5052119;28;19962;-67
2021/01/30 01:57:46;;;;;;;;;;;5.60;99.90;;;;;;5051473;28;19924;-66
2021/01/30 02:00:13;;;;;;;;;;;5.60;99.90;;;;;;5051710;28;19913;-66
2021/01/30 02:02:38;;;;;;;;;;;5.60;99.90;;;;;;5042055;28;20432;-66
2021/01/30 02:05:08;;;;;;;;;;;5.60;99.90;;;;;;5051930;28;19913;-66
2021/01/30 02:07:38;;;;;;;;;;;5.70;99.90;;;;;;5051976;28;19978;-66
2021/01/30 02:10:06;;;;;;;;;;;5.60;99.90;;;;;;5047567;28;19920;-65
2021/01/30 02:12:31;;;;;;;;;;;5.70;99.90;;;;;;5049321;28;19917;-67
2021/01/30 02:14:57;;;;;;;;;;;5.70;99.90;;;;;;5050788;28;20635;-67
2021/01/30 02:17:39;;;;;;;;;;;5.70;99.90;;;;;;5050811;28;20404;-67
2021/01/30 02:20:22;;;;;;;;;;;5.70;99.90;;;;;;5051075;28;20007;-67
2021/01/30 02:22:56;;;;;;;;;;;5.70;99.90;;;;;;5044626;28;19939;-66
2021/01/30 02:25:25;;;;;;;;;;;5.70;99.90;;;;;;5050637;28;20361;-67
2021/01/30 02:27:56;;;;;;;;;;;5.70;99.90;;;;;;5050928;28;19913;-67
2021/01/30 02:30:33;;;;;;;;;;;5.70;99.90;;;;;;5049067;28;20280;-65
2021/01/30 02:33:14;;;;;;;;;;;5.70;99.90;;;;;;5048400;28;19947;-67
2021/01/30 02:35:58;;;;;;;;;;;5.70;99.90;;;;;;5048545;28;19978;-67
2021/01/30 02:38:25;;;;;;;;;;;5.70;99.90;;;;;;5049366;28;20365;-67
2021/01/30 02:40:54;;;;;;;;;;;5.80;99.90;;;;;;5050045;28;19913;-66
2021/01/30 02:43:22;;;;;;;;;;;5.70;99.90;;;;;;5050443;28;19966;-66
2021/01/30 02:45:54;;;;;;;;;;;5.70;99.90;;;;;;5049482;28;20003;-66
2021/01/30 02:48:27;;;;;;;;;;;5.70;99.90;;;;;;5049885;28;19913;-66
2021/01/30 02:50:58;;;;;;;;;;;5.70;99.90;;;;;;5043893;28;19913;-66
2021/01/30 02:53:26;;;;;;;;;;;5.70;99.90;;;;;;5051073;28;19983;-67
2021/01/30 02:55:53;;;;;;;;;;;5.80;99.90;;;;;;5049650;28;19913;-67
2021/01/30 02:58:19;;;;;;;;;;;5.80;99.90;;;;;;5052801;28;19984;-66
2021/01/30 03:00:46;;;;;;;;;;;5.80;99.90;;;;;;5052528;28;19921;-66
2021/01/30 03:03:12;;;;;;;;;;;5.80;99.90;;;;;;5054094;28;19920;-67
2021/01/30 03:05:38;;;;;;;;;;;5.80;99.90;;;;;;5054263;28;20270;-67
2021/01/30 03:08:22;;;;;;;;;;;5.90;99.90;;;;;;5053158;28;19920;-66
2021/01/30 03:11:01;;;;;;;;;;;5.90;99.90;;;;;;5056066;28;19916;-67
2021/01/30 03:13:37;;;;;;;;;;;5.90;99.90;;;;;;5056104;28;19924;-65
2021/01/30 03:16:11;;;;;;;;;;;5.90;99.90;;;;;;5052778;28;19913;-66
2021/01/30 03:18:39;;;;;;;;;;;5.90;99.90;;;;;;5051445;28;19921;-65
2021/01/30 03:21:05;;;;;;;;;;;6.00;99.90;;;;;;5053664;28;19917;-67
2021/01/30 03:23:31;;;;;;;;;;;6.00;99.90;;;;;;5052911;28;19963;-66
2021/01/30 03:26:00;;;;;;;;;;;6.00;99.90;;;;;;5051322;28;19953;-66
2021/01/30 03:28:26;;;;;;;;;;;6.00;99.90;;;;;;5052184;28;20023;-66
2021/01/30 03:30:51;;;;;;;;;;;6.00;99.90;;;;;;5053662;28;19916;-66
2021/01/30 03:33:17;;;;;;;;;;;6.00;99.90;;;;;;5054308;28;20338;-67
2021/01/30 03:35:42;;;;;;;;;;;5.90;99.90;;;;;;5052684;28;20116;-68
2021/01/30 03:38:08;;;;;;;;;;;5.90;99.90;;;;;;5053672;28;19909;-68
2021/01/30 03:40:34;;;;;;;;;;;5.90;99.90;;;;;;5053471;28;19956;-68
2021/01/30 03:42:59;;;;;;;;;;;5.90;99.90;;;;;;5053083;28;19917;-67
2021/01/30 03:45:26;;;;;;;;;;;5.90;99.90;;;;;;5053714;28;19909;-68
2021/01/30 03:47:52;;;;;;;;;;;5.90;99.90;;;;;;5051737;28;20233;-67
2021/01/30 03:50:17;;;;;;;;;;;5.90;99.90;;;;;;5054041;28;19996;-67
2021/01/30 03:52:43;;;;;;;;;;;5.90;99.90;;;;;;5051362;28;19917;-68
2021/01/30 03:55:09;;;;;;;;;;;5.80;99.90;;;;;;5053181;28;19992;-67
2021/01/30 03:57:35;;;;;;;;;;;5.80;99.90;;;;;;5053266;28;19917;-67
2021/01/30 04:00:01;;;;;;;;;;;5.80;99.90;;;;;;5052713;28;19923;-67
2021/01/30 04:02:26;;;;;;;;;;;5.80;99.90;;;;;;5051032;28;20031;-66
2021/01/30 04:04:52;;;;;;;;;;;5.80;99.90;;;;;;5053237;28;20428;-67
2021/01/30 04:07:17;;;;;;;;;;;5.80;99.90;;;;;;5052134;28;20008;-67
2021/01/30 04:09:43;;;;;;;;;;;5.80;99.90;;;;;;5051591;28;19928;-68
2021/01/30 04:12:08;;;;;;;;;;;5.80;99.90;;;;;;5053070;28;19913;-67
2021/01/30 04:14:34;;;;;;;;;;;5.80;99.90;;;;;;5052204;28;19912;-68
2021/01/30 04:17:00;;;;;;;;;;;5.80;99.90;;;;;;5052116;28;19938;-67
2021/01/30 04:19:25;;;;;;;;;;;5.70;99.90;;;;;;5052354;28;20297;-68
2021/01/30 04:21:51;;;;;;;;;;;5.70;99.90;;;;;;5053570;28;19917;-67
2021/01/30 04:24:17;;;;;;;;;;;5.60;99.90;;;;;;5051321;28;19913;-68
2021/01/30 04:26:46;;;;;;;;;;;5.70;99.90;;;;;;5049957;28;19917;-67
2021/01/30 04:29:12;;;;;;;;;;;5.70;99.90;;;;;;5050356;28;20412;-67
2021/01/30 04:31:37;;;;;;;;;;;5.70;99.90;;;;;;5052216;28;19913;-67
2021/01/30 04:34:03;;;;;;;;;;;5.70;99.90;;;;;;5053343;28;19913;-68
2021/01/30 04:36:28;;;;;;;;;;;5.70;99.90;;;;;;5051261;28;19916;-67
2021/01/30 04:38:54;;;;;;;;;;;5.70;99.90;;;;;;5052612;28;19920;-68
2021/01/30 04:41:19;;;;;;;;;;;5.70;99.90;;;;;;5052996;28;20016;-68
2021/01/30 04:43:53;;;;;;;;;;;5.70;99.90;;;;;;5053550;28;19956;-67
2021/01/30 04:46:28;;;;;;;;;;;5.80;99.90;;;;;;5052855;28;19920;-67
2021/01/30 04:49:16;;;;;;;;;;;5.80;99.90;;;;;;5052973;28;19921;-67
2021/01/30 04:51:58;;;;;;;;;;;5.80;99.90;;;;;;5053318;28;19913;-68
2021/01/30 04:54:39;;;;;;;;;;;5.80;99.90;;;;;;5052999;28;19982;-66
2021/01/30 04:57:23;;;;;;;;;;;5.80;99.90;;;;;;5053972;28;19916;-66
2021/01/30 04:59:48;;;;;;;;;;;5.80;99.90;;;;;;5052531;28;19923;-67
2021/01/30 05:02:16;;;;;;;;;;;5.80;99.90;;;;;;5052536;28;20511;-67
2021/01/30 05:04:44;;;;;;;;;;;5.80;99.90;;;;;;5052639;28;19913;-68
2021/01/30 05:07:25;;;;;;;;;;;5.70;99.90;;;;;;5050838;28;19938;-67
2021/01/30 05:09:53;;;;;;;;;;;5.70;99.90;;;;;;5050435;28;20285;-67
2021/01/30 05:12:26;;;;;;;;;;;5.70;99.90;;;;;;5051441;28;19928;-66
2021/01/30 05:15:10;;;;;;;;;;;5.70;99.90;;;;;;5049997;28;19939;-67
2021/01/30 05:17:38;;;;;;;;;;;5.70;99.90;;;;;;5051020;28;19952;-68
2021/01/30 05:20:08;;;;;;;;;;;5.70;99.90;;;;;;5051099;28;19916;-67
2021/01/30 05:22:37;;;;;;;;;;;5.70;99.90;;;;;;5051507;28;19963;-67
2021/01/30 05:25:04;;;;;;;;;;;5.80;99.90;;;;;;5044387;28;19912;-68
2021/01/30 05:27:36;;;;;;;;;;;5.80;99.90;;;;;;5053428;28;19976;-68
2021/01/30 05:30:09;;;;;;;;;;;5.80;99.90;;;;;;5050736;28;20050;-68
2021/01/30 05:32:50;;;;;;;;;;;5.90;99.90;;;;;;5048516;28;20003;-67
2021/01/30 05:35:24;;;;;;;;;;;5.90;99.90;;;;;;5042404;28;20380;-68
2021/01/30 05:38:04;;;;;;;;;;;5.90;99.90;;;;;;5050596;28;20003;-67
2021/01/30 05:40:47;;;;;;;;;;;5.90;99.90;;;;;;5049832;28;19919;-68
2021/01/30 05:43:19;;;;;;;;;;;5.90;99.90;;;;;;5051749;28;20613;-68
2021/01/30 05:45:53;;;;;;;;;;;5.80;99.90;;;;;;5050986;28;19916;-68
2021/01/30 05:48:18;;;;;;;;;;;5.70;99.90;;;;;;5051142;28;20409;-68
2021/01/30 05:50:46;;;;;;;;;;;5.70;99.90;;;;;;5051172;28;20408;-67
2021/01/30 05:53:15;;;;;;;;;;;5.70;99.90;;;;;;5051475;28;19923;-67
2021/01/30 05:55:40;;;;;;;;;;;5.70;99.90;;;;;;5051544;28;19908;-68
2021/01/30 05:58:10;;;;;;;;;;;5.70;99.90;;;;;;5050875;28;20510;-68
2021/01/30 06:00:36;;;;;;;;;;;5.70;99.90;;;;;;5051724;28;19986;-70
2021/01/30 06:03:07;;;;;;;;;;;5.70;99.90;;;;;;5040894;28;20573;-67
2021/01/30 06:05:46;;;;;;;;;;;5.70;99.90;;;;;;5041879;28;20008;-68
2021/01/30 06:08:12;;;;;;;;;;;5.70;99.90;;;;;;5051020;28;19924;-67
2021/01/30 06:10:38;;;;;;;;;;;5.70;99.90;;;;;;5051273;28;19913;-67
2021/01/30 06:13:14;;;;;;;;;;;5.70;99.90;;;;;;5051207;28;19936;-67
2021/01/30 06:15:42;;;;;;;;;;;5.70;99.90;;;;;;5051362;28;19944;-68
2021/01/30 06:18:17;;;;;;;;;;;5.80;99.90;;;;;;5051342;28;19913;-67
2021/01/30 06:20:55;;;;;;;;;;;5.70;99.90;;;;;;5049404;28;19920;-70
2021/01/30 06:23:20;;;;;;;;;;;5.70;99.90;;;;;;5048430;28;19924;-69
2021/01/30 06:25:46;;;;;;;;;;;5.60;99.90;;;;;;5050523;28;19999;-68
2021/01/30 06:28:14;;;;;;;;;;;5.60;99.90;;;;;;5049605;28;19920;-69
2021/01/30 06:30:42;;;;;;;;;;;5.50;99.90;;;;;;5050383;28;19964;-67
2021/01/30 06:33:33;;;;;;;;;;;5.50;99.90;;;;;;5050783;28;20007;-68
2021/01/30 06:36:09;;;;;;;;;;;5.50;99.90;;;;;;5044573;28;19959;-69
2021/01/30 06:38:40;;;;;;;;;;;5.50;99.90;;;;;;5042909;28;19966;-69
2021/01/30 06:41:12;;;;;;;;;;;5.40;99.90;;;;;;5051985;28;19920;-68
2021/01/30 06:43:43;;;;;;;;;;;5.40;99.90;;;;;;5053230;28;19913;-67
2021/01/30 06:46:08;;;;;;;;;;;5.40;99.90;;;;;;5051503;28;19921;-69
2021/01/30 06:48:37;;;;;;;;;;;5.40;99.90;;;;;;5052462;28;19909;-69
2021/01/30 06:51:19;;;;;;;;;;;5.40;99.90;;;;;;5053351;28;20418;-69
2021/01/30 06:53:45;;;;;;;;;;;5.40;99.90;;;;;;5050048;28;19917;-70
2021/01/30 06:56:16;;;;;;;;;;;5.40;99.90;;;;;;5038251;28;20303;-69
2021/01/30 06:58:42;;;;;;;;;;;5.40;99.90;;;;;;5048439;28;19958;-66
2021/01/30 07:01:19;;;;;;;;;;;5.40;99.90;;;;;;5050980;28;19917;-69
2021/01/30 07:03:51;;;;;;;;;;;5.40;99.90;;;;;;5049272;28;19917;-68
2021/01/30 07:06:21;;;;;;;;;;;5.40;99.90;;;;;;5043946;28;19959;-67
2021/01/30 07:08:55;;;;;;;;;;;5.50;99.90;;;;;;5042706;28;19917;-69
2021/01/30 07:11:27;;;;;;;;;;;5.50;99.90;;;;;;5045747;28;20013;-67
2021/01/30 07:13:58;;;;;;;;;;;5.50;99.90;;;;;;5041964;28;19973;-66
2021/01/30 07:16:31;;;;;;;;;;;5.50;99.90;;;;;;5048965;28;20829;-68
2021/01/30 07:19:16;;;;;;;;;;;5.50;99.90;;;;;;5043768;28;19913;-67
2021/01/30 07:21:47;;;;;;;;;;;5.50;99.90;;;;;;5043726;28;19932;-65
2021/01/30 07:24:18;;;;;;;;;;;5.60;99.90;;;;;;5040976;28;19959;-67
2021/01/30 07:26:51;;;;;;;;;;;5.60;99.90;;;;;;5042341;28;20004;-67
2021/01/30 07:29:26;;;;;;;;;;;5.60;99.90;;;;;;5044751;28;20340;-67
2021/01/30 07:32:05;;;;;;;;;;;5.60;99.90;;;;;;5052076;28;19948;-67
2021/01/30 07:34:39;;;;;;;;;;;5.60;99.90;;;;;;5051369;28;20055;-68
2021/01/30 07:37:11;;;;;;;;;;;5.70;99.90;;;;;;5049587;28;19949;-67
2021/01/30 07:39:45;;;;;;;;;;;5.70;99.90;;;;;;5043469;28;19917;-67
2021/01/30 07:42:22;;;;;;;;;;;5.70;99.90;;;;;;5044512;28;20464;-67
2021/01/30 07:44:54;;;;;;;;;;;5.80;99.90;;;;;;5041380;28;19913;-67
2021/01/30 07:47:30;;;;;;;;;;;5.80;99.90;;;;;;5050130;28;19925;-68
2021/01/30 07:50:01;;;;;;;;;;;5.90;99.90;;;;;;5044449;28;20003;-68
2021/01/30 07:52:28;;;;;;;;;;;5.90;99.90;;;;;;5051866;28;19924;-67
2021/01/30 07:54:55;;;;;;;;;;;5.90;99.90;;;;;;5051393;28;19948;-68
2021/01/30 07:57:29;;;;;;;;;;;5.90;99.90;;;;;;5052505;28;20415;-68
2021/01/30 07:59:56;;;;;;;;;;;6.00;99.90;;;;;;5050955;28;20304;-68
2021/01/30 08:02:40;;;;;;;;;;;6.00;99.90;;;;;;5051685;28;20019;-65
2021/01/30 08:05:14;;;;;;;;;;;6.00;99.90;;;;;;5052615;28;19913;-68
2021/01/30 08:07:51;;;;;;;;;;;6.10;99.90;;;;;;5049849;28;19948;-67
2021/01/30 08:10:16;;;;;;;;;;;6.10;99.90;;;;;;5051735;28;19924;-67
2021/01/30 08:12:56;;;;;;;;;;;6.10;99.90;;;;;;5051161;28;19967;-67
2021/01/30 08:15:21;;;;;;;;;;;6.20;99.90;;;;;;5049136;28;19939;-68
2021/01/30 08:17:56;;;;;;;;;;;6.20;99.90;;;;;;5045692;28;20453;-68
2021/01/30 08:20:26;;;;;;;;;;;6.20;99.90;;;;;;5042564;28;19927;-68
2021/01/30 08:23:06;;;;;;;;;;;6.20;99.90;;;;;;5040804;28;19920;-66
2021/01/30 08:25:58;;;;;;;;;;;6.30;99.90;;;;;;5041165;28;19909;-67
2021/01/30 08:28:32;;;;;;;;;;;6.30;99.90;;;;;;5045621;28;19912;-66
2021/01/30 08:30:58;;;;;;;;;;;6.40;99.90;;;;;;5044782;28;20038;-67
2021/01/30 08:33:23;;;;;;;;;;;6.40;99.90;;;;;;5042484;28;20334;-67
2021/01/30 08:35:55;;;;;;;;;;;6.50;99.90;;;;;;5044752;28;19989;-67
2021/01/30 08:38:20;;;;;;;;;;;6.50;99.90;;;;;;5040009;28;19920;-67
2021/01/30 08:40:56;;;;;;;;;;;6.60;99.90;;;;;;5042016;28;20023;-67
2021/01/30 08:43:32;;;;;;;;;;;6.70;99.90;;;;;;5046814;28;20026;-68
2021/01/30 08:46:24;;;;;;;;;;;6.80;99.90;;;;;;5047311;28;19917;-68
2021/01/30 08:49:08;;;;;;;;;;;7.00;99.90;;;;;;5029953;28;19935;-67
2021/01/30 08:51:34;;;;;;;;;;;7.50;99.90;;;;;;5047842;28;19919;-69
2021/01/30 08:54:19;;;;;;;;;;;8.00;99.90;;;;;;5047430;28;19913;-67
2021/01/30 08:56:49;;;;;;;;;;;8.40;99.90;;;;;;5042633;28;20589;-67
2021/01/30 08:59:33;;;;;;;;;;;8.40;99.90;;;;;;5049045;28;19973;-67
2021/01/30 09:01:59;;;;;;;;;;;8.30;99.90;;;;;;5049406;28;19928;-68
2021/01/30 09:04:42;;;;;;;;;;;8.30;99.90;;;;;;5049341;28;19947;-67
2021/01/30 09:07:08;;;;;;;;;;;8.20;99.90;;;;;;5050421;28;19919;-69
2021/01/30 09:09:53;;;;;;;;;;;8.20;99.90;;;;;;5050361;28;19913;-69
2021/01/30 09:12:39;;;;;;;;;;;8.10;99.90;;;;;;5050239;28;19916;-67
2021/01/30 09:15:04;;;;;;;;;;;8.20;99.90;;;;;;5049021;28;20012;-66
2021/01/30 09:17:36;;;;;;;;;;;8.10;99.90;;;;;;5048357;28;19916;-67
2021/01/30 09:20:25;;;;;;;;;;;8.10;99.90;;;;;;5050003;28;19960;-69
2021/01/30 09:22:53;;;;;;;;;;;8.20;99.90;;;;;;5049800;28;19967;-67
2021/01/30 09:25:37;;;;;;;;;;;8.30;99.90;;;;;;5042826;28;19920;-68
2021/01/30 09:28:07;;;;;;;;;;;8.50;99.90;;;;;;5048032;28;20050;-68
2021/01/30 09:30:38;;;;;;;;;;;8.50;99.90;;;;;;5049807;28;19921;-66
2021/01/30 09:33:12;;;;;;;;;;;8.70;99.90;;;;;;5050889;28;19913;-67
2021/01/30 09:35:39;;;;;;;;;;;8.50;99.90;;;;;;5048232;28;20346;-66
2021/01/30 09:38:23;;;;;;;;;;;8.60;99.90;;;;;;5048412;28;19959;-67
2021/01/30 09:40:48;;;;;;;;;;;8.60;99.90;;;;;;5042247;28;19960;-67
2021/01/30 09:43:14;;;;;;;;;;;8.60;99.90;;;;;;5046587;28;20337;-67
2021/01/30 09:45:47;;;;;;;;;;;8.80;99.90;;;;;;5037333;28;20297;-68
2021/01/30 09:48:13;;;;;;;;;;;9.00;99.90;;;;;;5046802;28;20005;-69
2021/01/30 09:50:41;;;;;;;;;;;9.40;99.90;;;;;;5046991;28;20005;-66
2021/01/30 09:53:12;;;;;;;;;;;9.80;99.90;;;;;;5047438;28;20261;-66
2021/01/30 09:55:38;;;;;;;;;;;10.60;99.90;;;;;;5046950;28;19913;-67
2021/01/30 09:58:07;;;;;;;;;;;11.60;99.90;;;;;;5045025;28;19913;-64
2021/01/30 10:00:37;;;;;;;;;;;12.60;99.90;;;;;;5045948;28;19917;-67
2021/01/30 10:03:17;;;;;;;;;;;13.30;99.90;;;;;;5045823;28;19983;-67
2021/01/30 10:05:43;;;;;;;;;;;13.90;99.90;;;;;;5046139;28;20369;-65
2021/01/30 10:08:12;;;;;;;;;;;14.70;99.90;;;;;;5046087;28;19913;-65
2021/01/30 10:10:38;;;;;;;;;;;15.60;99.90;;;;;;5045590;28;20375;-67
2021/01/30 10:13:10;;;;;;;;;;;17.00;99.90;;;;;;5045392;28;19940;-65
2021/01/30 10:15:36;;;;;;;;;;;17.50;99.90;;;;;;5045886;28;19924;-65
2021/01/30 10:18:11;;;;;;;;;;;16.80;99.90;;;;;;5044776;28;19923;-68
2021/01/30 10:20:42;;;;;;;;;;;15.80;99.90;;;;;;5045712;28;20437;-68
2021/01/30 10:23:08;;;;;;;;;;;14.60;99.90;;;;;;5046109;28;20348;-67
2021/01/30 10:25:34;;;;;;;;;;;13.70;99.90;;;;;;5045763;28;20301;-66
2021/01/30 10:28:08;;;;;;;;;;;13.00;99.90;;;;;;5044302;28;19916;-67
2021/01/30 10:30:34;;;;;;;;;;;12.60;99.90;;;;;;5043670;28;19920;-69
2021/01/30 10:33:00;;;;;;;;;;;12.20;99.90;;;;;;5046227;28;19913;-66
2021/01/30 10:35:32;;;;;;;;;;;11.70;99.90;;;;;;5046516;28;19913;-67
2021/01/30 10:38:08;;;;;;;;;;;10.90;99.90;;;;;;5045584;28;19920;-68
2021/01/30 10:40:54;;;;;;;;;;;10.30;99.90;;;;;;5045522;28;19979;-67
2021/01/30 10:43:24;;;;;;;;;;;9.90;99.90;;;;;;5046126;28;19925;-66
2021/01/30 10:46:00;;;;;;;;;;;9.80;99.90;;;;;;5045945;28;20012;-66
2021/01/30 10:48:27;;;;;;;;;;;9.60;99.90;;;;;;5044994;28;20007;-67
2021/01/30 10:51:00;;;;;;;;;;;9.70;99.90;;;;;;5045666;28;19947;-69
2021/01/30 10:53:38;;;;;;;;;;;10.00;99.90;;;;;;5046928;28;19919;-68
2021/01/30 10:56:14;;;;;;;;;;;10.30;99.90;;;;;;5043359;28;19999;-66
2021/01/30 10:58:40;;;;;;;;;;;10.60;99.90;;;;;;5040239;28;19913;-70
2021/01/30 11:01:10;;;;;;;;;;;10.90;99.90;;;;;;5046144;28;20514;-68
2021/01/30 11:03:54;;;;;;;;;;;11.10;99.90;;;;;;5038438;28;19912;-66
2021/01/30 11:06:29;;;;;;;;;;;11.20;99.90;;;;;;5046577;28;19920;-66
2021/01/30 11:08:55;;;;;;;;;;;11.40;99.90;;;;;;5045282;28;19929;-68
2021/01/30 11:11:31;;;;;;;;;;;11.50;99.90;;;;;;5044879;28;19935;-67
2021/01/30 11:13:57;;;;;;;;;;;11.30;99.90;;;;;;5045241;28;19959;-68
2021/01/30 11:16:29;;;;;;;;;;;11.30;99.90;;;;;;5045631;28;19916;-67
2021/01/30 11:18:54;;;;;;;;;;;11.60;99.90;;;;;;5046566;28;20332;-68
2021/01/30 11:21:28;;;;;;;;;;;12.10;99.90;;;;;;5049812;28;20012;-68
2021/01/30 11:23:54;;;;;;;;;;;12.70;99.90;;;;;;5047038;28;19921;-68
2021/01/30 11:26:32;;;;;;;;;;;13.40;99.90;;;;;;5049241;28;19916;-65
2021/01/30 11:28:58;;;;;;;;;;;13.80;99.90;;;;;;5050783;28;19913;-66
2021/01/30 11:31:25;;;;;;;;;;;14.10;99.90;;;;;;5048733;28;20238;-68
2021/01/30 11:33:52;;;;;;;;;;;14.20;99.90;;;;;;5048519;28;20427;-66
2021/01/30 11:36:17;;;;;;;;;;;14.40;99.90;;;;;;5049775;28;19909;-66
2021/01/30 11:38:44;;;;;;;;;;;14.40;99.90;;;;;;5048509;28;19921;-68
2021/01/30 11:41:10;;;;;;;;;;;14.40;99.90;;;;;;5048861;28;19954;-67
2021/01/30 11:43:35;;;;;;;;;;;14.20;99.90;;;;;;5048996;28;20353;-69
2021/01/30 11:46:01;;;;;;;;;;;13.90;99.90;;;;;;5049114;28;19913;-70
2021/01/30 11:48:26;;;;;;;;;;;13.50;99.90;;;;;;5047770;28;19913;-66
2021/01/30 11:50:52;;;;;;;;;;;13.20;99.90;;;;;;5047647;28;20613;-68
2021/01/30 11:53:23;;;;;;;;;;;13.00;99.90;;;;;;5049766;28;19960;-65
2021/01/30 11:55:49;;;;;;;;;;;12.90;99.90;;;;;;5048975;28;19999;-66
2021/01/30 11:58:16;;;;;;;;;;;12.60;99.90;;;;;;5048666;28;19969;-65
2021/01/30 12:00:41;;;;;;;;;;;12.30;99.90;;;;;;5048662;28;19952;-66
2021/01/30 12:03:18;;;;;;;;;;;12.00;99.90;;;;;;5047415;28;19971;-66
2021/01/30 12:05:43;;;;;;;;;;;11.70;99.90;;;;;;5048853;28;19952;-67
2021/01/30 12:08:09;;;;;;;;;;;11.50;99.90;;;;;;5049683;28;19963;-69
2021/01/30 12:10:35;;;;;;;;;;;11.30;99.90;;;;;;5039832;28;19913;-66
2021/01/30 12:13:00;;;;;;;;;;;11.20;99.90;;;;;;5049108;28;19917;-68
2021/01/30 12:15:25;;;;;;;;;;;11.10;99.90;;;;;;5047184;28;20227;-67
2021/01/30 12:17:51;;;;;;;;;;;11.00;99.90;;;;;;5048046;28;19916;-66
2021/01/30 12:20:19;;;;;;;;;;;10.80;99.90;;;;;;5048892;28;20707;-66
2021/01/30 12:22:45;;;;;;;;;;;10.80;99.90;;;;;;5049614;28;19916;-67
2021/01/30 12:25:11;;;;;;;;;;;10.80;99.90;;;;;;5048604;28;19988;-66
2021/01/30 12:27:40;;;;;;;;;;;10.80;99.90;;;;;;5048973;28;20208;-66
2021/01/30 12:30:06;;;;;;;;;;;10.70;99.90;;;;;;5046571;28;19909;-65
2021/01/30 12:32:31;;;;;;;;;;;10.60;99.90;;;;;;5028144;28;19913;-66
2021/01/30 12:34:57;;;;;;;;;;;10.60;99.90;;;;;;5030655;28;20538;-65
2021/01/30 12:37:22;;;;;;;;;;;10.50;99.90;;;;;;5043863;28;19917;-66
2021/01/30 12:39:48;;;;;;;;;;;10.40;99.90;;;;;;5048434;28;19920;-67
2021/01/30 12:42:14;;;;;;;;;;;10.20;99.90;;;;;;5048604;28;19948;-66
2021/01/30 12:44:40;;;;;;;;;;;10.10;99.90;;;;;;5045096;28;20522;-65
2021/01/30 12:47:05;;;;;;;;;;;10.00;99.90;;;;;;5045950;28;19916;-66
2021/01/30 12:49:31;;;;;;;;;;;9.80;99.90;;;;;;5047769;28;19912;-66
2021/01/30 12:51:56;;;;;;;;;;;9.70;99.90;;;;;;5048663;28;19920;-67
2021/01/30 12:54:23;;;;;;;;;;;9.60;99.90;;;;;;5047946;28;19916;-67
2021/01/30 12:56:49;;;;;;;;;;;9.60;99.90;;;;;;5049319;28;19963;-67
2021/01/30 12:59:14;;;;;;;;;;;9.50;99.90;;;;;;5049668;28;19913;-67
2021/01/30 13:01:40;;;;;;;;;;;9.40;99.90;;;;;;5049111;28;19919;-65
2021/01/30 13:04:05;;;;;;;;;;;9.10;99.90;;;;;;5050315;28;19936;-66
2021/01/30 13:06:31;;;;;;;;;;;8.90;99.90;;;;;;5050543;28;19909;-66
2021/01/30 13:08:57;;;;;;;;;;;8.80;99.90;;;;;;5050068;28;19924;-66
2021/01/30 13:11:22;;;;;;;;;;;8.70;99.90;;;;;;5049931;28;19995;-68
2021/01/30 13:13:48;;;;;;;;;;;8.60;99.90;;;;;;5049782;28;20020;-65
2021/01/30 13:16:14;;;;;;;;;;;8.50;99.90;;;;;;5048935;28;19908;-66
2021/01/30 13:18:39;;;;;;;;;;;8.50;99.90;;;;;;5049783;28;19913;-65
2021/01/30 13:21:06;;;;;;;;;;;8.40;99.90;;;;;;5049895;28;19925;-64
2021/01/30 13:23:32;;;;;;;;;;;8.40;99.90;;;;;;5049458;28;19909;-69
2021/01/30 13:25:58;;;;;;;;;;;8.30;99.90;;;;;;5049234;28;19912;-67
2021/01/30 13:28:23;;;;;;;;;;;8.10;99.90;;;;;;5048834;28;19913;-67
2021/01/30 13:30:49;;;;;;;;;;;8.10;99.90;;;;;;5046823;28;19987;-67
2021/01/30 13:33:16;;;;;;;;;;;8.00;99.90;;;;;;5036932;28;19916;-67
2021/01/30 13:35:42;;;;;;;;;;;7.90;99.90;;;;;;5046680;28;19967;-67
2021/01/30 13:38:08;;;;;;;;;;;7.80;99.90;;;;;;5048384;28;19951;-66
2021/01/30 13:40:33;;;;;;;;;;;7.60;99.90;;;;;;5046990;28;20442;-68
2021/01/30 13:42:59;;;;;;;;;;;7.50;99.90;;;;;;5047582;28;20015;-71
2021/01/30 13:45:24;;;;;;;;;;;7.50;99.90;;;;;;5047916;28;19964;-71
2021/01/30 13:47:50;;;;;;;;;;;7.50;99.90;;;;;;5045734;28;19912;-69
2021/01/30 13:50:16;;;;;;;;;;;7.50;99.90;;;;;;5047854;28;20000;-70
2021/01/30 13:52:42;;;;;;;;;;;7.50;99.90;;;;;;5047951;28;20454;-68
2021/01/30 13:55:08;;;;;;;;;;;7.40;99.90;;;;;;5046787;28;20231;-66
2021/01/30 13:57:33;;;;;;;;;;;7.30;99.90;;;;;;5045642;28;20039;-67
2021/01/30 13:59:59;;;;;;;;;;;7.30;99.90;;;;;;5043662;28;20355;-65
2021/01/30 14:02:24;;;;;;;;;;;7.20;99.90;;;;;;5025445;28;19935;-68
2021/01/30 14:04:50;;;;;;;;;;;7.10;99.90;;;;;;5044240;28;19916;-65
2021/01/30 14:07:15;;;;;;;;;;;7.10;99.90;;;;;;5047150;28;20036;-69
2021/01/30 14:09:41;;;;;;;;;;;7.10;99.90;;;;;;5045674;28;19987;-68
2021/01/30 14:12:07;;;;;;;;;;;6.90;99.90;;;;;;5047203;28;20402;-68
2021/01/30 14:14:33;;;;;;;;;;;6.90;99.90;;;;;;5045675;28;19916;-71
2021/01/30 14:16:58;;;;;;;;;;;6.90;99.90;;;;;;5037757;28;19917;-68
2021/01/30 14:19:24;;;;;;;;;;;7.00;99.90;;;;;;5046524;28;19919;-66
2021/01/30 14:21:53;;;;;;;;;;;6.90;99.90;;;;;;5046707;28;20051;-69
2021/01/30 14:24:18;;;;;;;;;;;6.90;99.90;;;;;;5045924;28;19935;-67
2021/01/30 14:26:47;;;;;;;;;;;6.90;99.90;;;;;;5045664;28;20003;-67
2021/01/30 14:29:13;;;;;;;;;;;6.70;99.90;;;;;;5046276;28;19942;-66
2021/01/30 14:31:39;;;;;;;;;;;6.70;99.90;;;;;;5045130;28;19913;-70
2021/01/30 14:34:04;;;;;;;;;;;6.80;99.90;;;;;;5046082;28;19927;-71
2021/01/30 14:36:29;;;;;;;;;;;6.80;99.90;;;;;;5045729;28;19920;-72
2021/01/30 14:38:55;;;;;;;;;;;6.90;99.90;;;;;;5044983;28;19979;-71
2021/01/30 14:41:21;;;;;;;;;;;7.00;99.90;;;;;;5043984;28;19921;-69